sensor_id;sensor_type;location;lat;lon;timestamp;temperature;humidity
46816;DHT22;32787;53.316;8.670;2024-02-14T00:00:03;6.40;86.80
46816;DHT22;32787;53.316;8.670;2024-02-14T00:02:29;6.30;87.70
46816;DHT22;32787;53.316;8.670;2024-02-14T00:04:55;6.30;88.50
46816;DHT22;32787;53.316;8.670;2024-02-14T00:07:21;6.30;88.30
46816;DHT22;32787;53.316;8.670;2024-02-14T00:09:47;6.30;88.40
46816;DHT22;32787;53.316;8.670;2024-02-14T00:12:13;6.20;89.10
46816;DHT22;32787;53.316;8.670;2024-02-14T00:14:39;6.10;89.40
46816;DHT22;32787;53.316;8.670;2024-02-14T00:17:04;6.10;89.80
46816;DHT22;32787;53.316;8.670;2024-02-14T00:19:31;6.00;90.10
46816;DHT22;32787;53.316;8.670;2024-02-14T00:21:57;6.00;90.20
46816;DHT22;32787;53.316;8.670;2024-02-14T00:24:23;5.90;90.60
46816;DHT22;32787;53.316;8.670;2024-02-14T00:26:52;5.90;91.00
46816;DHT22;32787;53.316;8.670;2024-02-14T00:29:18;5.80;91.50
46816;DHT22;32787;53.316;8.670;2024-02-14T00:31:43;5.80;92.00
46816;DHT22;32787;53.316;8.670;2024-02-14T00:34:10;5.90;92.20
46816;DHT22;32787;53.316;8.670;2024-02-14T00:36:36;5.90;92.30
46816;DHT22;32787;53.316;8.670;2024-02-14T00:39:02;5.90;92.20
46816;DHT22;32787;53.316;8.670;2024-02-14T00:41:28;5.90;92.20
46816;DHT22;32787;53.316;8.670;2024-02-14T00:43:56;5.90;92.40
46816;DHT22;32787;53.316;8.670;2024-02-14T00:46:22;6.00;92.30
46816;DHT22;32787;53.316;8.670;2024-02-14T00:48:47;6.00;92.40
46816;DHT22;32787;53.316;8.670;2024-02-14T00:51:13;6.00;92.40
46816;DHT22;32787;53.316;8.670;2024-02-14T00:53:39;5.90;92.70
46816;DHT22;32787;53.316;8.670;2024-02-14T00:56:05;5.80;93.10
46816;DHT22;32787;53.316;8.670;2024-02-14T00:58:31;5.90;93.50
46816;DHT22;32787;53.316;8.670;2024-02-14T01:00:57;5.70;93.50
46816;DHT22;32787;53.316;8.670;2024-02-14T01:03:23;5.70;93.90
46816;DHT22;32787;53.316;8.670;2024-02-14T01:05:49;5.70;94.10
46816;DHT22;32787;53.316;8.670;2024-02-14T01:08:15;5.70;94.30
46816;DHT22;32787;53.316;8.670;2024-02-14T01:10:41;5.70;94.50
46816;DHT22;32787;53.316;8.670;2024-02-14T01:13:06;5.90;94.50
46816;DHT22;32787;53.316;8.670;2024-02-14T01:15:32;5.80;94.50
46816;DHT22;32787;53.316;8.670;2024-02-14T01:18:01;5.80;94.70
46816;DHT22;32787;53.316;8.670;2024-02-14T01:20:26;5.80;94.90
46816;DHT22;32787;53.316;8.670;2024-02-14T01:22:52;5.90;94.70
46816;DHT22;32787;53.316;8.670;2024-02-14T01:25:18;5.80;94.70
46816;DHT22;32787;53.316;8.670;2024-02-14T01:27:43;5.80;94.90
46816;DHT22;32787;53.316;8.670;2024-02-14T01:30:11;5.80;94.90
46816;DHT22;32787;53.316;8.670;2024-02-14T01:32:37;5.80;95.10
46816;DHT22;32787;53.316;8.670;2024-02-14T01:35:03;5.80;95.20
46816;DHT22;32787;53.316;8.670;2024-02-14T01:37:29;5.80;95.20
46816;DHT22;32787;53.316;8.670;2024-02-14T01:39:55;5.70;95.40
46816;DHT22;32787;53.316;8.670;2024-02-14T01:42:21;5.70;95.50
46816;DHT22;32787;53.316;8.670;2024-02-14T01:44:47;5.60;95.60
46816;DHT22;32787;53.316;8.670;2024-02-14T01:47:13;5.60;95.70
46816;DHT22;32787;53.316;8.670;2024-02-14T01:49:39;5.80;95.90
46816;DHT22;32787;53.316;8.670;2024-02-14T01:52:05;5.80;95.90
46816;DHT22;32787;53.316;8.670;2024-02-14T01:54:31;5.70;95.90
46816;DHT22;32787;53.316;8.670;2024-02-14T01:56:58;5.70;95.90
46816;DHT22;32787;53.316;8.670;2024-02-14T01:59:26;5.70;95.90
46816;DHT22;32787;53.316;8.670;2024-02-14T02:01:52;5.90;95.90
46816;DHT22;32787;53.316;8.670;2024-02-14T02:04:18;5.80;95.90
46816;DHT22;32787;53.316;8.670;2024-02-14T02:06:44;5.90;95.90
46816;DHT22;32787;53.316;8.670;2024-02-14T02:09:10;5.80;95.80
46816;DHT22;32787;53.316;8.670;2024-02-14T02:11:48;5.80;95.80
46816;DHT22;32787;53.316;8.670;2024-02-14T02:14:14;5.80;95.90
46816;DHT22;32787;53.316;8.670;2024-02-14T02:16:40;5.80;96.00
46816;DHT22;32787;53.316;8.670;2024-02-14T02:19:06;5.80;96.00
46816;DHT22;32787;53.316;8.670;2024-02-14T02:21:35;5.90;96.00
46816;DHT22;32787;53.316;8.670;2024-02-14T02:24:01;5.90;96.10
46816;DHT22;32787;53.316;8.670;2024-02-14T02:26:27;5.90;95.90
46816;DHT22;32787;53.316;8.670;2024-02-14T02:28:53;5.90;95.90
46816;DHT22;32787;53.316;8.670;2024-02-14T02:31:19;5.80;96.00
46816;DHT22;32787;53.316;8.670;2024-02-14T02:33:45;5.90;96.00
46816;DHT22;32787;53.316;8.670;2024-02-14T02:36:11;5.90;96.00
46816;DHT22;32787;53.316;8.670;2024-02-14T02:38:37;5.90;95.90
46816;DHT22;32787;53.316;8.670;2024-02-14T02:41:05;5.90;96.00
46816;DHT22;32787;53.316;8.670;2024-02-14T02:43:32;5.90;96.10
46816;DHT22;32787;53.316;8.670;2024-02-14T02:45:58;5.90;96.10
46816;DHT22;32787;53.316;8.670;2024-02-14T02:48:24;5.90;96.20
46816;DHT22;32787;53.316;8.670;2024-02-14T02:50:50;6.00;96.20
46816;DHT22;32787;53.316;8.670;2024-02-14T02:53:16;6.00;96.10
46816;DHT22;32787;53.316;8.670;2024-02-14T02:55:42;5.90;96.10
46816;DHT22;32787;53.316;8.670;2024-02-14T02:58:09;6.00;96.10
46816;DHT22;32787;53.316;8.670;2024-02-14T03:00:34;6.10;96.20
46816;DHT22;32787;53.316;8.670;2024-02-14T03:03:01;6.10;96.00
46816;DHT22;32787;53.316;8.670;2024-02-14T03:05:28;6.10;96.10
46816;DHT22;32787;53.316;8.670;2024-02-14T03:07:57;6.00;95.90
46816;DHT22;32787;53.316;8.670;2024-02-14T03:10:24;5.90;96.10
46816;DHT22;32787;53.316;8.670;2024-02-14T03:12:50;6.10;96.10
46816;DHT22;32787;53.316;8.670;2024-02-14T03:15:17;6.20;96.20
46816;DHT22;32787;53.316;8.670;2024-02-14T03:17:44;6.10;96.10
46816;DHT22;32787;53.316;8.670;2024-02-14T03:20:10;6.00;96.10
46816;DHT22;32787;53.316;8.670;2024-02-14T03:22:39;6.00;96.30
46816;DHT22;32787;53.316;8.670;2024-02-14T03:25:08;6.00;96.40
46816;DHT22;32787;53.316;8.670;2024-02-14T03:27:35;6.00;96.40
46816;DHT22;32787;53.316;8.670;2024-02-14T03:30:02;6.10;96.40
46816;DHT22;32787;53.316;8.670;2024-02-14T03:32:29;6.00;96.40
46816;DHT22;32787;53.316;8.670;2024-02-14T03:34:55;5.90;96.50
46816;DHT22;32787;53.316;8.670;2024-02-14T03:37:21;6.00;96.60
46816;DHT22;32787;53.316;8.670;2024-02-14T03:39:46;6.00;96.60
46816;DHT22;32787;53.316;8.670;2024-02-14T03:42:12;6.10;96.70
46816;DHT22;32787;53.316;8.670;2024-02-14T03:44:38;6.10;96.60
46816;DHT22;32787;53.316;8.670;2024-02-14T03:47:04;6.10;96.60
46816;DHT22;32787;53.316;8.670;2024-02-14T03:49:29;6.20;96.70
46816;DHT22;32787;53.316;8.670;2024-02-14T03:51:56;6.20;96.70
46816;DHT22;32787;53.316;8.670;2024-02-14T03:54:22;6.20;96.80
46816;DHT22;32787;53.316;8.670;2024-02-14T03:56:49;6.20;96.60
46816;DHT22;32787;53.316;8.670;2024-02-14T03:59:14;6.20;96.60
46816;DHT22;32787;53.316;8.670;2024-02-14T04:01:47;6.20;96.60
46816;DHT22;32787;53.316;8.670;2024-02-14T04:04:12;6.20;96.60
46816;DHT22;32787;53.316;8.670;2024-02-14T04:06:38;6.20;96.70
46816;DHT22;32787;53.316;8.670;2024-02-14T04:09:03;6.30;96.70
46816;DHT22;32787;53.316;8.670;2024-02-14T04:11:29;6.20;96.70
46816;DHT22;32787;53.316;8.670;2024-02-14T04:13:55;6.30;96.80
46816;DHT22;32787;53.316;8.670;2024-02-14T04:16:21;6.30;96.70
46816;DHT22;32787;53.316;8.670;2024-02-14T04:18:47;6.40;96.90
46816;DHT22;32787;53.316;8.670;2024-02-14T04:21:12;6.30;96.80
46816;DHT22;32787;53.316;8.670;2024-02-14T04:23:38;6.20;96.80
46816;DHT22;32787;53.316;8.670;2024-02-14T04:26:05;6.30;96.90
46816;DHT22;32787;53.316;8.670;2024-02-14T04:28:31;6.30;96.80
46816;DHT22;32787;53.316;8.670;2024-02-14T04:30:57;6.30;96.80
46816;DHT22;32787;53.316;8.670;2024-02-14T04:33:23;6.30;96.80
46816;DHT22;32787;53.316;8.670;2024-02-14T04:35:49;6.40;96.80
46816;DHT22;32787;53.316;8.670;2024-02-14T04:38:15;6.30;96.90
46816;DHT22;32787;53.316;8.670;2024-02-14T04:40:41;6.30;96.90
46816;DHT22;32787;53.316;8.670;2024-02-14T04:43:07;6.30;96.90
46816;DHT22;32787;53.316;8.670;2024-02-14T04:45:33;6.30;96.90
46816;DHT22;32787;53.316;8.670;2024-02-14T04:47:58;6.30;97.00
46816;DHT22;32787;53.316;8.670;2024-02-14T04:50:24;6.30;97.00
46816;DHT22;32787;53.316;8.670;2024-02-14T04:52:50;6.40;97.00
46816;DHT22;32787;53.316;8.670;2024-02-14T04:55:15;6.50;97.00
46816;DHT22;32787;53.316;8.670;2024-02-14T04:57:41;6.50;97.10
46816;DHT22;32787;53.316;8.670;2024-02-14T05:00:07;6.40;97.10
46816;DHT22;32787;53.316;8.670;2024-02-14T05:02:34;6.40;97.00
46816;DHT22;32787;53.316;8.670;2024-02-14T05:05:00;6.50;97.10
46816;DHT22;32787;53.316;8.670;2024-02-14T05:07:27;6.40;97.10
46816;DHT22;32787;53.316;8.670;2024-02-14T05:09:52;6.50;97.10
46816;DHT22;32787;53.316;8.670;2024-02-14T05:12:20;6.50;97.20
46816;DHT22;32787;53.316;8.670;2024-02-14T05:14:46;6.50;97.20
46816;DHT22;32787;53.316;8.670;2024-02-14T05:17:13;6.40;97.20
46816;DHT22;32787;53.316;8.670;2024-02-14T05:19:40;6.50;97.20
46816;DHT22;32787;53.316;8.670;2024-02-14T05:22:07;6.40;97.20
46816;DHT22;32787;53.316;8.670;2024-02-14T05:24:33;6.50;97.30
46816;DHT22;32787;53.316;8.670;2024-02-14T05:27:01;6.50;97.30
46816;DHT22;32787;53.316;8.670;2024-02-14T05:29:26;6.50;97.30
46816;DHT22;32787;53.316;8.670;2024-02-14T05:31:52;6.50;97.30
46816;DHT22;32787;53.316;8.670;2024-02-14T05:34:21;6.60;97.30
46816;DHT22;32787;53.316;8.670;2024-02-14T05:36:46;6.60;97.30
46816;DHT22;32787;53.316;8.670;2024-02-14T05:39:12;6.70;97.40
46816;DHT22;32787;53.316;8.670;2024-02-14T05:41:40;6.70;97.40
46816;DHT22;32787;53.316;8.670;2024-02-14T05:44:05;6.70;97.40
46816;DHT22;32787;53.316;8.670;2024-02-14T05:46:31;6.80;97.30
46816;DHT22;32787;53.316;8.670;2024-02-14T05:48:57;6.80;97.30
46816;DHT22;32787;53.316;8.670;2024-02-14T05:51:23;6.70;97.40
46816;DHT22;32787;53.316;8.670;2024-02-14T05:53:49;6.70;97.40
46816;DHT22;32787;53.316;8.670;2024-02-14T05:56:14;6.70;97.40
46816;DHT22;32787;53.316;8.670;2024-02-14T05:58:40;6.70;97.40
46816;DHT22;32787;53.316;8.670;2024-02-14T06:01:06;6.80;97.40
46816;DHT22;32787;53.316;8.670;2024-02-14T06:03:32;6.80;97.40
46816;DHT22;32787;53.316;8.670;2024-02-14T06:05:57;6.80;97.50
46816;DHT22;32787;53.316;8.670;2024-02-14T06:08:23;6.90;97.40
46816;DHT22;32787;53.316;8.670;2024-02-14T06:10:52;6.90;97.40
46816;DHT22;32787;53.316;8.670;2024-02-14T06:13:18;6.90;97.40
46816;DHT22;32787;53.316;8.670;2024-02-14T06:15:44;6.90;97.40
46816;DHT22;32787;53.316;8.670;2024-02-14T06:18:11;6.90;97.40
46816;DHT22;32787;53.316;8.670;2024-02-14T06:20:36;6.90;97.40
46816;DHT22;32787;53.316;8.670;2024-02-14T06:23:04;7.00;97.40
46816;DHT22;32787;53.316;8.670;2024-02-14T06:25:30;7.00;97.40
46816;DHT22;32787;53.316;8.670;2024-02-14T06:27:55;7.20;97.40
46816;DHT22;32787;53.316;8.670;2024-02-14T06:30:21;7.10;97.40
46816;DHT22;32787;53.316;8.670;2024-02-14T06:32:47;7.10;97.40
46816;DHT22;32787;53.316;8.670;2024-02-14T06:35:12;7.30;97.40
46816;DHT22;32787;53.316;8.670;2024-02-14T06:37:40;7.30;97.40
46816;DHT22;32787;53.316;8.670;2024-02-14T06:40:06;7.30;97.40
46816;DHT22;32787;53.316;8.670;2024-02-14T06:42:34;7.30;97.40
46816;DHT22;32787;53.316;8.670;2024-02-14T06:44:59;7.30;97.30
46816;DHT22;32787;53.316;8.670;2024-02-14T06:47:25;7.40;97.40
46816;DHT22;32787;53.316;8.670;2024-02-14T06:49:55;7.50;97.20
46816;DHT22;32787;53.316;8.670;2024-02-14T06:52:21;7.50;97.30
46816;DHT22;32787;53.316;8.670;2024-02-14T06:54:46;7.50;97.20
46816;DHT22;32787;53.316;8.670;2024-02-14T06:57:14;7.60;97.20
46816;DHT22;32787;53.316;8.670;2024-02-14T06:59:39;7.80;97.10
46816;DHT22;32787;53.316;8.670;2024-02-14T07:02:05;7.80;96.90
46816;DHT22;32787;53.316;8.670;2024-02-14T07:04:31;7.90;97.00
46816;DHT22;32787;53.316;8.670;2024-02-14T07:06:58;7.90;96.90
46816;DHT22;32787;53.316;8.670;2024-02-14T07:09:23;7.90;96.70
46816;DHT22;32787;53.316;8.670;2024-02-14T07:11:51;7.90;96.70
46816;DHT22;32787;53.316;8.670;2024-02-14T07:14:19;8.00;96.80
46816;DHT22;32787;53.316;8.670;2024-02-14T07:16:45;8.20;96.70
46816;DHT22;32787;53.316;8.670;2024-02-14T07:19:10;8.20;96.50
46816;DHT22;32787;53.316;8.670;2024-02-14T07:21:36;8.30;96.40
46816;DHT22;32787;53.316;8.670;2024-02-14T07:24:04;8.10;96.30
46816;DHT22;32787;53.316;8.670;2024-02-14T07:26:30;8.30;96.50
46816;DHT22;32787;53.316;8.670;2024-02-14T07:28:56;8.30;96.40
46816;DHT22;32787;53.316;8.670;2024-02-14T07:31:22;8.40;96.40
46816;DHT22;32787;53.316;8.670;2024-02-14T07:33:48;8.30;96.20
46816;DHT22;32787;53.316;8.670;2024-02-14T07:36:15;8.40;96.10
46816;DHT22;32787;53.316;8.670;2024-02-14T07:38:42;8.50;96.20
46816;DHT22;32787;53.316;8.670;2024-02-14T07:41:08;8.60;96.20
46816;DHT22;32787;53.316;8.670;2024-02-14T07:43:34;8.60;96.00
46816;DHT22;32787;53.316;8.670;2024-02-14T07:46:00;8.70;96.10
46816;DHT22;32787;53.316;8.670;2024-02-14T07:48:25;8.60;95.90
46816;DHT22;32787;53.316;8.670;2024-02-14T07:50:51;8.60;96.00
46816;DHT22;32787;53.316;8.670;2024-02-14T07:53:17;8.70;96.10
46816;DHT22;32787;53.316;8.670;2024-02-14T07:55:42;8.80;96.20
46816;DHT22;32787;53.316;8.670;2024-02-14T07:58:08;8.90;96.20
46816;DHT22;32787;53.316;8.670;2024-02-14T08:00:34;8.90;96.10
46816;DHT22;32787;53.316;8.670;2024-02-14T08:02:59;8.90;96.20
46816;DHT22;32787;53.316;8.670;2024-02-14T08:05:28;8.90;96.10
46816;DHT22;32787;53.316;8.670;2024-02-14T08:07:54;9.10;96.00
46816;DHT22;32787;53.316;8.670;2024-02-14T08:10:20;9.10;96.00
46816;DHT22;32787;53.316;8.670;2024-02-14T08:12:46;9.00;95.90
46816;DHT22;32787;53.316;8.670;2024-02-14T08:15:12;9.00;96.00
46816;DHT22;32787;53.316;8.670;2024-02-14T08:17:38;9.10;96.10
46816;DHT22;32787;53.316;8.670;2024-02-14T08:20:04;9.20;96.10
46816;DHT22;32787;53.316;8.670;2024-02-14T08:22:30;9.30;96.10
46816;DHT22;32787;53.316;8.670;2024-02-14T08:24:56;9.30;96.00
46816;DHT22;32787;53.316;8.670;2024-02-14T08:27:22;9.30;96.10
46816;DHT22;32787;53.316;8.670;2024-02-14T08:29:48;9.40;96.10
46816;DHT22;32787;53.316;8.670;2024-02-14T08:32:13;9.40;96.10
46816;DHT22;32787;53.316;8.670;2024-02-14T08:34:39;9.40;96.10
46816;DHT22;32787;53.316;8.670;2024-02-14T08:37:05;9.40;96.00
46816;DHT22;32787;53.316;8.670;2024-02-14T08:39:31;9.40;96.00
46816;DHT22;32787;53.316;8.670;2024-02-14T08:41:56;9.50;96.10
46816;DHT22;32787;53.316;8.670;2024-02-14T08:44:22;9.50;96.10
46816;DHT22;32787;53.316;8.670;2024-02-14T08:46:47;9.50;96.00
46816;DHT22;32787;53.316;8.670;2024-02-14T08:49:14;9.60;96.00
46816;DHT22;32787;53.316;8.670;2024-02-14T08:51:40;9.60;96.00
46816;DHT22;32787;53.316;8.670;2024-02-14T08:54:07;9.70;96.10
46816;DHT22;32787;53.316;8.670;2024-02-14T08:56:33;9.70;96.10
46816;DHT22;32787;53.316;8.670;2024-02-14T08:59:01;9.80;96.00
46816;DHT22;32787;53.316;8.670;2024-02-14T09:01:31;9.90;95.90
46816;DHT22;32787;53.316;8.670;2024-02-14T09:03:57;9.90;96.00
46816;DHT22;32787;53.316;8.670;2024-02-14T09:06:22;10.00;96.00
46816;DHT22;32787;53.316;8.670;2024-02-14T09:08:48;10.00;95.80
46816;DHT22;32787;53.316;8.670;2024-02-14T09:11:16;10.00;95.80
46816;DHT22;32787;53.316;8.670;2024-02-14T09:13:41;10.10;95.80
46816;DHT22;32787;53.316;8.670;2024-02-14T09:16:10;10.10;95.90
46816;DHT22;32787;53.316;8.670;2024-02-14T09:18:37;10.00;95.80
46816;DHT22;32787;53.316;8.670;2024-02-14T09:21:02;10.00;95.80
46816;DHT22;32787;53.316;8.670;2024-02-14T09:23:31;10.10;95.90
46816;DHT22;32787;53.316;8.670;2024-02-14T09:25:57;10.10;95.70
46816;DHT22;32787;53.316;8.670;2024-02-14T09:28:23;10.10;95.70
46816;DHT22;32787;53.316;8.670;2024-02-14T09:30:50;10.10;95.70
46816;DHT22;32787;53.316;8.670;2024-02-14T09:33:16;10.10;95.70
46816;DHT22;32787;53.316;8.670;2024-02-14T09:35:41;10.10;95.80
46816;DHT22;32787;53.316;8.670;2024-02-14T09:38:12;10.10;95.80
46816;DHT22;32787;53.316;8.670;2024-02-14T09:40:40;10.20;95.80
46816;DHT22;32787;53.316;8.670;2024-02-14T09:43:25;10.20;95.70
46816;DHT22;32787;53.316;8.670;2024-02-14T09:45:53;10.30;95.90
46816;DHT22;32787;53.316;8.670;2024-02-14T09:48:21;10.30;95.80
46816;DHT22;32787;53.316;8.670;2024-02-14T09:50:48;10.30;95.80
46816;DHT22;32787;53.316;8.670;2024-02-14T09:53:14;10.30;95.70
46816;DHT22;32787;53.316;8.670;2024-02-14T09:55:41;10.30;95.80
46816;DHT22;32787;53.316;8.670;2024-02-14T09:58:07;10.30;95.80
46816;DHT22;32787;53.316;8.670;2024-02-14T10:00:35;10.40;95.90
46816;DHT22;32787;53.316;8.670;2024-02-14T10:03:00;10.40;95.90
46816;DHT22;32787;53.316;8.670;2024-02-14T10:05:26;10.40;95.80
46816;DHT22;32787;53.316;8.670;2024-02-14T10:07:56;10.50;96.00
46816;DHT22;32787;53.316;8.670;2024-02-14T10:10:22;10.50;95.90
46816;DHT22;32787;53.316;8.670;2024-02-14T10:12:48;10.40;95.80
46816;DHT22;32787;53.316;8.670;2024-02-14T10:15:13;10.50;96.00
46816;DHT22;32787;53.316;8.670;2024-02-14T10:17:39;10.60;96.00
46816;DHT22;32787;53.316;8.670;2024-02-14T10:20:08;10.50;95.90
46816;DHT22;32787;53.316;8.670;2024-02-14T10:22:35;10.60;96.00
46816;DHT22;32787;53.316;8.670;2024-02-14T10:25:05;10.80;96.00
46816;DHT22;32787;53.316;8.670;2024-02-14T10:27:38;10.70;95.80
46816;DHT22;32787;53.316;8.670;2024-02-14T10:30:08;10.70;95.80
46816;DHT22;32787;53.316;8.670;2024-02-14T10:32:37;10.80;96.00
46816;DHT22;32787;53.316;8.670;2024-02-14T10:35:07;10.80;96.00
46816;DHT22;32787;53.316;8.670;2024-02-14T10:37:35;10.80;95.80
46816;DHT22;32787;53.316;8.670;2024-02-14T10:40:04;10.80;95.70
46816;DHT22;32787;53.316;8.670;2024-02-14T10:42:31;10.80;95.70
46816;DHT22;32787;53.316;8.670;2024-02-14T10:44:56;10.80;95.80
46816;DHT22;32787;53.316;8.670;2024-02-14T10:47:28;10.80;95.90
46816;DHT22;32787;53.316;8.670;2024-02-14T10:50:00;10.80;95.90
46816;DHT22;32787;53.316;8.670;2024-02-14T10:52:37;10.80;95.80
46816;DHT22;32787;53.316;8.670;2024-02-14T10:55:06;10.80;95.80
46816;DHT22;32787;53.316;8.670;2024-02-14T10:57:32;10.90;95.90
46816;DHT22;32787;53.316;8.670;2024-02-14T11:00:12;11.00;95.90
46816;DHT22;32787;53.316;8.670;2024-02-14T11:02:40;11.00;95.80
46816;DHT22;32787;53.316;8.670;2024-02-14T11:05:11;11.00;95.70
46816;DHT22;32787;53.316;8.670;2024-02-14T11:07:46;10.90;95.70
46816;DHT22;32787;53.316;8.670;2024-02-14T11:10:18;10.90;95.70
46816;DHT22;32787;53.316;8.670;2024-02-14T11:12:43;10.90;95.70
46816;DHT22;32787;53.316;8.670;2024-02-14T11:15:22;11.00;95.70
46816;DHT22;32787;53.316;8.670;2024-02-14T11:17:48;10.90;95.80
46816;DHT22;32787;53.316;8.670;2024-02-14T11:20:19;10.90;96.00
46816;DHT22;32787;53.316;8.670;2024-02-14T11:23:01;10.90;95.80
46816;DHT22;32787;53.316;8.670;2024-02-14T11:25:38;11.00;95.80
46816;DHT22;32787;53.316;8.670;2024-02-14T11:28:17;11.00;95.60
46816;DHT22;32787;53.316;8.670;2024-02-14T11:30:45;11.00;95.80
46816;DHT22;32787;53.316;8.670;2024-02-14T11:33:21;11.10;95.80
46816;DHT22;32787;53.316;8.670;2024-02-14T11:35:48;11.00;95.80
46816;DHT22;32787;53.316;8.670;2024-02-14T11:38:17;11.10;95.80
46816;DHT22;32787;53.316;8.670;2024-02-14T11:40:43;11.20;95.90
46816;DHT22;32787;53.316;8.670;2024-02-14T11:43:16;11.20;95.70
46816;DHT22;32787;53.316;8.670;2024-02-14T11:45:45;11.20;95.50
46816;DHT22;32787;53.316;8.670;2024-02-14T11:48:15;11.20;95.70
46816;DHT22;32787;53.316;8.670;2024-02-14T11:50:46;11.20;95.60
46816;DHT22;32787;53.316;8.670;2024-02-14T11:53:15;11.30;95.70
46816;DHT22;32787;53.316;8.670;2024-02-14T11:55:45;11.30;95.60
46816;DHT22;32787;53.316;8.670;2024-02-14T11:58:13;11.20;95.50
46816;DHT22;32787;53.316;8.670;2024-02-14T12:00:46;11.10;95.50
46816;DHT22;32787;53.316;8.670;2024-02-14T12:03:24;11.20;95.60
46816;DHT22;32787;53.316;8.670;2024-02-14T12:05:52;11.10;95.60
46816;DHT22;32787;53.316;8.670;2024-02-14T12:08:18;11.00;95.60
46816;DHT22;32787;53.316;8.670;2024-02-14T12:10:45;11.00;95.70
46816;DHT22;32787;53.316;8.670;2024-02-14T12:13:17;11.10;95.60
46816;DHT22;32787;53.316;8.670;2024-02-14T12:15:50;11.00;95.70
46816;DHT22;32787;53.316;8.670;2024-02-14T12:18:17;11.00;95.70
46816;DHT22;32787;53.316;8.670;2024-02-14T12:20:45;11.00;95.70
46816;DHT22;32787;53.316;8.670;2024-02-14T12:23:16;11.10;95.70
46816;DHT22;32787;53.316;8.670;2024-02-14T12:25:47;11.10;95.60
46816;DHT22;32787;53.316;8.670;2024-02-14T12:28:16;11.10;95.70
46816;DHT22;32787;53.316;8.670;2024-02-14T12:30:47;11.10;95.70
46816;DHT22;32787;53.316;8.670;2024-02-14T12:33:15;11.20;95.60
46816;DHT22;32787;53.316;8.670;2024-02-14T12:35:46;11.20;95.60
46816;DHT22;32787;53.316;8.670;2024-02-14T12:38:13;11.20;95.60
46816;DHT22;32787;53.316;8.670;2024-02-14T12:40:39;11.20;95.60
46816;DHT22;32787;53.316;8.670;2024-02-14T12:43:08;11.20;95.50
46816;DHT22;32787;53.316;8.670;2024-02-14T12:45:34;11.20;95.70
46816;DHT22;32787;53.316;8.670;2024-02-14T12:48:00;11.30;95.70
46816;DHT22;32787;53.316;8.670;2024-02-14T12:50:26;11.20;95.40
46816;DHT22;32787;53.316;8.670;2024-02-14T12:52:52;11.20;95.60
46816;DHT22;32787;53.316;8.670;2024-02-14T12:55:18;11.20;95.60
46816;DHT22;32787;53.316;8.670;2024-02-14T12:57:45;11.20;95.60
46816;DHT22;32787;53.316;8.670;2024-02-14T13:00:11;11.10;95.60
46816;DHT22;32787;53.316;8.670;2024-02-14T13:02:36;11.20;95.70
46816;DHT22;32787;53.316;8.670;2024-02-14T13:05:04;11.10;95.70
46816;DHT22;32787;53.316;8.670;2024-02-14T13:07:31;11.10;95.70
46816;DHT22;32787;53.316;8.670;2024-02-14T13:09:57;11.20;95.90
46816;DHT22;32787;53.316;8.670;2024-02-14T13:12:22;11.30;95.80
46816;DHT22;32787;53.316;8.670;2024-02-14T13:14:48;11.30;95.70
46816;DHT22;32787;53.316;8.670;2024-02-14T13:17:14;11.20;95.70
46816;DHT22;32787;53.316;8.670;2024-02-14T13:19:39;11.40;95.80
46816;DHT22;32787;53.316;8.670;2024-02-14T13:22:05;11.40;95.60
46816;DHT22;32787;53.316;8.670;2024-02-14T13:24:31;11.40;95.70
46816;DHT22;32787;53.316;8.670;2024-02-14T13:26:57;11.50;95.70
46816;DHT22;32787;53.316;8.670;2024-02-14T13:29:26;11.50;95.60
46816;DHT22;32787;53.316;8.670;2024-02-14T13:31:51;11.40;95.60
46816;DHT22;32787;53.316;8.670;2024-02-14T13:34:17;11.40;95.60
46816;DHT22;32787;53.316;8.670;2024-02-14T13:36:48;11.50;95.60
46816;DHT22;32787;53.316;8.670;2024-02-14T13:39:14;11.40;95.60
46816;DHT22;32787;53.316;8.670;2024-02-14T13:41:40;11.50;95.70
46816;DHT22;32787;53.316;8.670;2024-02-14T13:44:09;11.40;95.80
46816;DHT22;32787;53.316;8.670;2024-02-14T13:46:40;11.50;95.80
46816;DHT22;32787;53.316;8.670;2024-02-14T13:49:08;11.50;95.70
46816;DHT22;32787;53.316;8.670;2024-02-14T13:51:36;11.60;95.80
46816;DHT22;32787;53.316;8.670;2024-02-14T13:54:02;11.70;95.70
46816;DHT22;32787;53.316;8.670;2024-02-14T13:56:27;11.60;95.50
46816;DHT22;32787;53.316;8.670;2024-02-14T13:58:53;11.60;95.50
46816;DHT22;32787;53.316;8.670;2024-02-14T14:01:19;11.60;95.60
46816;DHT22;32787;53.316;8.670;2024-02-14T14:03:45;11.60;95.50
46816;DHT22;32787;53.316;8.670;2024-02-14T14:06:11;11.60;95.70
46816;DHT22;32787;53.316;8.670;2024-02-14T14:08:36;11.60;95.50
46816;DHT22;32787;53.316;8.670;2024-02-14T14:11:03;11.60;95.50
46816;DHT22;32787;53.316;8.670;2024-02-14T14:13:29;11.60;95.60
46816;DHT22;32787;53.316;8.670;2024-02-14T14:15:57;11.40;95.50
46816;DHT22;32787;53.316;8.670;2024-02-14T14:18:22;11.40;95.60
46816;DHT22;32787;53.316;8.670;2024-02-14T14:20:49;11.50;95.70
46816;DHT22;32787;53.316;8.670;2024-02-14T14:23:15;11.50;95.60
46816;DHT22;32787;53.316;8.670;2024-02-14T14:25:41;11.50;95.60
46816;DHT22;32787;53.316;8.670;2024-02-14T14:28:07;11.40;95.60
46816;DHT22;32787;53.316;8.670;2024-02-14T14:30:35;11.30;95.60
46816;DHT22;32787;53.316;8.670;2024-02-14T14:33:01;11.30;95.70
46816;DHT22;32787;53.316;8.670;2024-02-14T14:35:27;11.30;95.70
46816;DHT22;32787;53.316;8.670;2024-02-14T14:37:52;11.40;95.80
46816;DHT22;32787;53.316;8.670;2024-02-14T14:40:19;11.30;95.70
46816;DHT22;32787;53.316;8.670;2024-02-14T14:42:47;11.30;95.80
46816;DHT22;32787;53.316;8.670;2024-02-14T14:45:12;11.40;95.80
46816;DHT22;32787;53.316;8.670;2024-02-14T14:47:38;11.40;95.90
46816;DHT22;32787;53.316;8.670;2024-02-14T14:50:05;11.30;95.70
46816;DHT22;32787;53.316;8.670;2024-02-14T14:52:32;11.40;95.70
46816;DHT22;32787;53.316;8.670;2024-02-14T14:54:58;11.40;95.70
46816;DHT22;32787;53.316;8.670;2024-02-14T14:57:24;11.40;95.60
46816;DHT22;32787;53.316;8.670;2024-02-14T14:59:49;11.40;95.80
46816;DHT22;32787;53.316;8.670;2024-02-14T15:02:16;11.40;95.60
46816;DHT22;32787;53.316;8.670;2024-02-14T15:04:41;11.50;95.70
46816;DHT22;32787;53.316;8.670;2024-02-14T15:07:09;11.50;95.70
46816;DHT22;32787;53.316;8.670;2024-02-14T15:09:35;11.50;95.70
46816;DHT22;32787;53.316;8.670;2024-02-14T15:12:01;11.40;95.60
46816;DHT22;32787;53.316;8.670;2024-02-14T15:14:26;11.50;95.60
46816;DHT22;32787;53.316;8.670;2024-02-14T15:16:52;11.50;95.60
46816;DHT22;32787;53.316;8.670;2024-02-14T15:19:18;11.60;95.50
46816;DHT22;32787;53.316;8.670;2024-02-14T15:21:43;11.60;95.30
46816;DHT22;32787;53.316;8.670;2024-02-14T15:24:09;11.60;95.30
46816;DHT22;32787;53.316;8.670;2024-02-14T15:26:35;11.60;95.30
46816;DHT22;32787;53.316;8.670;2024-02-14T15:29:16;11.50;95.20
46816;DHT22;32787;53.316;8.670;2024-02-14T15:32:01;11.50;95.40
46816;DHT22;32787;53.316;8.670;2024-02-14T15:34:45;11.60;95.40
46816;DHT22;32787;53.316;8.670;2024-02-14T15:37:11;11.50;95.40